Time;durP1;ratioP1;P1;durP2;ratioP2;P2;SDS_P1;SDS_P2;PMS_P1;PMS_P2;Temp;Humidity;BMP_temperature;BMP_pressure;BME280_temperature;BME280_humidity;BME280_pressure;Samples;Min_cycle;Max_cycle;Signal;HPM_P1;HPM_P2
2023/08/21 00:02:25;;;;;;;9.93;5.50;;;25.10;99.90;;;;;;5013379;28;20025;-43
2023/08/21 00:04:51;;;;;;;8.85;6.05;;;25.00;99.90;;;;;;5013993;28;20044;-43
2023/08/21 00:07:16;;;;;;;8.02;6.13;;;25.00;99.90;;;;;;5013517;28;20029;-42
2023/08/21 00:09:42;;;;;;;9.48;6.45;;;25.00;99.90;;;;;;5013201;28;20096;-46
2023/08/21 00:12:07;;;;;;;9.88;6.63;;;25.00;99.90;;;;;;5031013;28;20420;-45
2023/08/21 00:14:33;;;;;;;7.60;5.50;;;25.00;99.90;;;;;;5031251;28;20481;-49
2023/08/21 00:16:58;;;;;;;10.18;6.00;;;25.00;99.90;;;;;;5031116;28;20041;-46
2023/08/21 00:19:24;;;;;;;7.80;7.00;;;25.00;99.90;;;;;;5034571;28;20053;-50
2023/08/21 00:21:49;;;;;;;10.65;5.90;;;24.90;99.90;;;;;;5017047;28;20033;-45
2023/08/21 00:24:15;;;;;;;8.48;6.38;;;24.90;99.90;;;;;;5034645;28;20508;-44
2023/08/21 00:26:41;;;;;;;7.65;6.75;;;24.90;99.90;;;;;;5016821;28;20456;-43
2023/08/21 00:29:06;;;;;;;12.02;6.25;;;24.90;99.90;;;;;;5034575;28;20025;-46
2023/08/21 00:31:32;;;;;;;8.93;6.28;;;24.80;99.90;;;;;;5016893;28;20026;-48
2023/08/21 00:33:57;;;;;;;10.35;6.53;;;24.80;99.90;;;;;;5017237;28;20068;-43
2023/08/21 00:36:23;;;;;;;8.32;5.28;;;24.80;99.90;;;;;;5034720;28;20033;-44
2023/08/21 00:38:49;;;;;;;11.13;6.07;;;24.80;99.90;;;;;;5016670;28;20511;-45
2023/08/21 00:41:14;;;;;;;7.32;5.65;;;24.70;99.90;;;;;;5000172;28;20497;-43
2023/08/21 00:43:40;;;;;;;12.65;6.07;;;24.60;99.90;;;;;;5016676;28;20028;-44
2023/08/21 00:46:06;;;;;;;9.65;6.18;;;24.60;99.90;;;;;;5034867;28;20057;-46
2023/08/21 00:48:31;;;;;;;8.55;6.05;;;24.50;99.90;;;;;;5016762;28;20484;-45
2023/08/21 00:50:57;;;;;;;11.07;6.22;;;24.40;99.90;;;;;;5016645;28;20511;-45
2023/08/21 00:53:24;;;;;;;10.95;5.97;;;24.40;99.90;;;;;;5016664;28;20129;-42
2023/08/21 00:55:50;;;;;;;7.75;6.88;;;24.30;99.90;;;;;;5017090;28;20393;-43
2023/08/21 00:58:17;;;;;;;9.52;6.15;;;24.20;99.90;;;;;;5000444;28;20063;-43
2023/08/21 01:00:47;;;;;;;7.45;6.13;;;24.20;99.90;;;;;;5016214;28;20029;-48
2023/08/21 01:03:12;;;;;;;7.40;5.68;;;24.10;99.90;;;;;;5016962;28;20030;-43
2023/08/21 01:05:38;;;;;;;6.13;5.45;;;24.10;99.90;;;;;;4999859;28;20033;-43
2023/08/21 01:08:14;;;;;;;7.88;5.68;;;24.00;99.90;;;;;;5016386;28;20072;-45
2023/08/21 01:10:58;;;;;;;10.20;6.05;;;24.00;99.90;;;;;;4999802;28;20022;-44
2023/08/21 01:13:42;;;;;;;11.70;6.25;;;23.90;99.90;;;;;;5016188;28;20075;-45
2023/08/21 01:16:09;;;;;;;8.10;6.20;;;23.80;99.90;;;;;;5033837;28;20481;-45
2023/08/21 01:18:35;;;;;;;7.82;6.88;;;23.80;99.90;;;;;;5015934;28;20501;-45
2023/08/21 01:21:04;;;;;;;9.10;6.60;;;23.80;99.90;;;;;;5015937;28;20405;-44
2023/08/21 01:23:34;;;;;;;11.50;6.47;;;23.70;99.90;;;;;;5016055;28;20030;-47
2023/08/21 01:25:59;;;;;;;9.73;6.53;;;23.70;99.90;;;;;;5016282;28;20109;-44
2023/08/21 01:28:25;;;;;;;8.23;6.40;;;23.60;99.90;;;;;;5015898;28;20498;-42
2023/08/21 01:31:00;;;;;;;11.50;6.70;;;23.60;99.90;;;;;;4998435;28;20022;-48
2023/08/21 01:33:29;;;;;;;9.50;6.32;;;23.50;99.90;;;;;;5033718;28;20493;-42
2023/08/21 01:35:55;;;;;;;7.25;6.60;;;23.50;99.90;;;;;;5033637;28;20038;-46
2023/08/21 01:38:21;;;;;;;9.75;7.07;;;23.40;99.90;;;;;;5015834;28;20489;-43
2023/08/21 01:40:47;;;;;;;14.25;6.50;;;23.40;99.90;;;;;;5015679;28;20033;-43
2023/08/21 01:43:13;;;;;;;13.25;6.65;;;23.40;99.90;;;;;;5033483;28;20147;-42
2023/08/21 01:45:38;;;;;;;12.77;6.85;;;23.30;99.90;;;;;;4999111;28;20049;-45
2023/08/21 01:48:04;;;;;;;7.97;7.18;;;23.30;99.90;;;;;;5033324;28;20017;-43
2023/08/21 01:50:30;;;;;;;12.00;7.68;;;23.30;99.90;;;;;;5032936;28;20477;-46
2023/08/21 01:52:55;;;;;;;8.82;6.75;;;23.30;99.90;;;;;;5015577;28;20029;-48
2023/08/21 01:55:21;;;;;;;8.15;7.10;;;23.30;99.90;;;;;;5015352;28;20401;-47
2023/08/21 01:57:47;;;;;;;8.88;6.95;;;23.20;99.90;;;;;;5015194;28;20455;-43
2023/08/21 02:00:13;;;;;;;8.55;6.90;;;23.20;99.90;;;;;;5015099;28;20523;-47
2023/08/21 02:02:38;;;;;;;10.82;8.23;;;23.20;99.90;;;;;;5032994;28;20095;-47
2023/08/21 02:05:04;;;;;;;7.85;6.60;;;23.20;99.90;;;;;;5015361;28;20025;-43
2023/08/21 02:07:30;;;;;;;7.93;7.22;;;23.20;99.90;;;;;;5032867;28;20021;-44
2023/08/21 02:09:55;;;;;;;7.47;6.78;;;23.20;99.90;;;;;;5014731;28;20022;-45
2023/08/21 02:12:21;;;;;;;7.65;6.85;;;23.10;99.90;;;;;;4998769;28;20025;-47
2023/08/21 02:14:46;;;;;;;8.85;7.15;;;23.00;99.90;;;;;;5014963;28;20116;-44
2023/08/21 02:17:12;;;;;;;10.60;7.50;;;23.00;99.90;;;;;;5014840;28;20148;-44
2023/08/21 02:19:38;;;;;;;9.40;7.78;;;22.90;99.90;;;;;;5014670;28;20025;-49
2023/08/21 02:22:03;;;;;;;9.80;8.30;;;22.80;99.90;;;;;;5032672;28;20076;-43
2023/08/21 02:24:29;;;;;;;8.55;7.75;;;22.80;99.90;;;;;;4998571;28;20026;-45
2023/08/21 02:26:54;;;;;;;9.82;8.40;;;22.70;99.90;;;;;;5014675;28;20966;-45
2023/08/21 02:29:20;;;;;;;8.82;7.60;;;22.70;99.90;;;;;;5032454;28;20488;-44
2023/08/21 02:31:46;;;;;;;12.45;7.43;;;22.80;99.90;;;;;;5032468;28;20507;-43
2023/08/21 02:34:11;;;;;;;10.52;8.38;;;22.80;99.90;;;;;;5032883;28;20029;-45
2023/08/21 02:36:37;;;;;;;14.02;9.82;;;22.70;99.90;;;;;;5014748;28;20032;-44
2023/08/21 02:39:03;;;;;;;8.52;7.63;;;22.70;99.90;;;;;;4998117;28;20091;-45
2023/08/21 02:41:29;;;;;;;9.27;8.38;;;22.70;99.90;;;;;;5013574;28;20443;-45
2023/08/21 02:43:54;;;;;;;11.20;8.65;;;22.70;99.90;;;;;;5014583;28;20017;-45
2023/08/21 02:46:20;;;;;;;14.75;9.10;;;22.70;99.90;;;;;;4998503;28;20552;-44
2023/08/21 02:48:45;;;;;;;9.95;8.68;;;22.70;99.90;;;;;;5031962;28;20025;-43
2023/08/21 02:51:11;;;;;;;11.75;8.73;;;22.70;99.90;;;;;;5031901;28;20029;-43
2023/08/21 02:53:37;;;;;;;14.18;8.13;;;22.70;99.90;;;;;;5014364;28;20025;-48
2023/08/21 02:56:02;;;;;;;10.35;8.27;;;22.70;99.90;;;;;;5014442;28;20032;-46
2023/08/21 02:58:28;;;;;;;10.43;9.38;;;22.70;99.90;;;;;;5014183;28;20061;-45
2023/08/21 03:00:53;;;;;;;9.85;8.32;;;22.80;99.90;;;;;;5014272;28;20056;-46
2023/08/21 03:03:19;;;;;;;9.25;8.25;;;22.70;99.90;;;;;;5031873;28;20033;-42
2023/08/21 03:05:44;;;;;;;9.98;8.20;;;22.60;99.90;;;;;;5014074;28;20105;-44
2023/08/21 03:08:10;;;;;;;10.30;8.52;;;22.60;99.90;;;;;;5031963;28;20033;-43
2023/08/21 03:10:36;;;;;;;14.15;8.38;;;22.60;99.90;;;;;;5014237;28;20026;-48
2023/08/21 03:13:02;;;;;;;11.98;8.30;;;22.60;99.90;;;;;;5032038;28;20029;-44
2023/08/21 03:15:28;;;;;;;11.13;8.88;;;22.60;99.90;;;;;;5031948;28;20021;-46
2023/08/21 03:17:54;;;;;;;9.77;8.75;;;22.60;99.90;;;;;;5028786;23;20042;-46
2023/08/21 03:20:20;;;;;;;10.82;8.50;;;22.50;99.90;;;;;;4977179;28;20022;-46
2023/08/21 03:22:46;;;;;;;11.35;8.55;;;22.60;99.90;;;;;;4994207;28;20498;-47
2023/08/21 03:25:12;;;;;;;8.95;8.05;;;22.60;99.90;;;;;;5011905;28;20026;-47
2023/08/21 03:27:39;;;;;;;13.48;8.73;;;22.60;99.90;;;;;;4994213;28;20125;-47
2023/08/21 03:30:06;;;;;;;10.10;8.50;;;22.70;99.90;;;;;;4993783;28;20049;-46
2023/08/21 03:32:32;;;;;;;9.23;7.70;;;22.70;99.90;;;;;;4993802;28;20056;-50
2023/08/21 03:34:58;;;;;;;14.88;9.52;;;22.70;99.90;;;;;;4994062;28;20061;-46
2023/08/21 03:37:23;;;;;;;13.38;8.93;;;22.70;99.90;;;;;;4994121;28;20505;-48
2023/08/21 03:39:49;;;;;;;13.38;8.65;;;22.70;99.90;;;;;;4993781;28;20033;-46
2023/08/21 03:42:14;;;;;;;14.43;10.02;;;22.70;99.90;;;;;;4994038;28;20026;-47
2023/08/21 03:44:40;;;;;;;11.85;9.30;;;22.70;99.90;;;;;;5010222;28;20509;-47
2023/08/21 03:47:06;;;;;;;10.30;8.75;;;22.70;99.90;;;;;;4993957;28;20018;-46
2023/08/21 03:49:31;;;;;;;12.52;9.00;;;22.70;99.90;;;;;;4993545;28;20025;-46
2023/08/21 03:51:57;;;;;;;9.95;8.85;;;22.70;99.90;;;;;;4993892;28;20021;-46
2023/08/21 03:54:22;;;;;;;10.65;8.23;;;22.70;99.90;;;;;;5015383;28;20041;-45
2023/08/21 03:56:48;;;;;;;12.73;9.00;;;22.70;99.90;;;;;;5015383;28;20097;-46
2023/08/21 03:59:13;;;;;;;13.93;9.35;;;22.70;99.90;;;;;;5015126;28;20038;-47
2023/08/21 04:01:39;;;;;;;9.30;8.40;;;22.70;99.90;;;;;;4997410;28;20026;-47
2023/08/21 04:04:04;;;;;;;16.50;9.65;;;22.70;99.90;;;;;;4997647;28;20371;-47
2023/08/21 04:06:30;;;;;;;13.85;9.07;;;22.70;99.90;;;;;;4997747;28;20388;-46
2023/08/21 04:08:55;;;;;;;13.23;9.18;;;22.70;99.90;;;;;;5015144;28;20371;-48
2023/08/21 04:11:21;;;;;;;11.60;9.13;;;22.70;99.90;;;;;;4997541;28;20022;-45
2023/08/21 04:13:46;;;;;;;12.15;9.23;;;22.70;99.90;;;;;;4997570;28;20122;-45
2023/08/21 04:16:12;;;;;;;11.20;9.70;;;22.70;99.90;;;;;;4997522;28;20018;-46
2023/08/21 04:18:38;;;;;;;13.13;9.45;;;22.70;99.90;;;;;;4997232;28;20042;-47
2023/08/21 04:21:04;;;;;;;10.30;9.18;;;22.70;99.90;;;;;;5015178;28;20029;-46
2023/08/21 04:23:29;;;;;;;16.45;9.63;;;22.60;99.90;;;;;;4997420;28;20026;-46
2023/08/21 04:26:02;;;;;;;9.85;8.52;;;22.60;99.90;;;;;;4997399;28;20060;-46
2023/08/21 04:28:29;;;;;;;10.70;9.48;;;22.60;99.90;;;;;;4997266;28;20037;-45
2023/08/21 04:30:55;;;;;;;19.88;9.70;;;22.60;99.90;;;;;;4996667;28;20037;-46
2023/08/21 04:33:21;;;;;;;13.05;10.73;;;22.70;99.90;;;;;;4997353;28;20397;-47
2023/08/21 04:35:46;;;;;;;15.75;9.23;;;22.60;99.90;;;;;;4997235;28;20036;-47
2023/08/21 04:38:12;;;;;;;10.88;9.77;;;22.60;99.90;;;;;;4997164;28;20097;-46
2023/08/21 04:40:37;;;;;;;14.65;10.30;;;22.60;99.90;;;;;;4997047;28;20501;-46
2023/08/21 04:43:03;;;;;;;16.02;9.95;;;22.70;99.90;;;;;;5013360;28;20058;-46
2023/08/21 04:45:28;;;;;;;11.32;10.13;;;22.60;99.90;;;;;;4997096;28;20022;-47
2023/08/21 04:47:54;;;;;;;14.98;10.10;;;22.70;99.90;;;;;;4997047;28;20077;-46
2023/08/21 04:50:19;;;;;;;12.52;9.68;;;22.70;99.90;;;;;;4996754;28;20025;-46
2023/08/21 04:52:45;;;;;;;13.40;10.68;;;22.70;99.90;;;;;;4996914;28;20045;-47
2023/08/21 04:55:11;;;;;;;10.30;9.18;;;22.70;99.90;;;;;;4996855;28;20032;-46
2023/08/21 04:57:36;;;;;;;12.73;9.55;;;22.70;99.90;;;;;;4996739;28;20026;-46
2023/08/21 05:00:03;;;;;;;14.57;9.88;;;22.70;99.90;;;;;;4996492;28;20030;-46
2023/08/21 05:02:29;;;;;;;14.30;9.07;;;22.60;99.90;;;;;;4996635;28;20030;-48
2023/08/21 05:04:55;;;;;;;10.05;8.77;;;22.60;99.90;;;;;;4995721;28;20559;-46
2023/08/21 05:07:20;;;;;;;14.05;9.90;;;22.60;99.90;;;;;;4996639;28;20491;-46
2023/08/21 05:09:46;;;;;;;13.57;9.25;;;22.60;99.90;;;;;;4996206;28;20370;-48
2023/08/21 05:12:11;;;;;;;13.13;10.27;;;22.70;99.90;;;;;;4996711;28;20544;-46
2023/08/21 05:14:37;;;;;;;10.90;9.27;;;22.80;99.90;;;;;;4996524;28;20493;-47
2023/08/21 05:17:03;;;;;;;12.52;8.75;;;22.90;99.90;;;;;;4996557;28;20482;-46
2023/08/21 05:19:29;;;;;;;10.88;9.05;;;23.00;99.90;;;;;;4995962;28;20088;-47
2023/08/21 05:21:54;;;;;;;9.52;8.60;;;23.40;99.90;;;;;;4996535;28;20030;-48
2023/08/21 05:24:20;;;;;;;12.73;9.23;;;23.80;99.90;;;;;;4996463;28;20022;-46
2023/08/21 05:26:45;;;;;;;14.32;8.68;;;24.10;99.90;;;;;;4996258;28;20052;-46
2023/08/21 05:29:11;;;;;;;13.75;8.88;;;24.40;99.90;;;;;;4996283;28;20025;-47
2023/08/21 05:31:37;;;;;;;17.67;7.97;;;24.70;99.90;;;;;;4995715;28;20026;-48
2023/08/21 05:34:03;;;;;;;10.73;7.80;;;24.90;99.90;;;;;;4996169;28;20030;-48
2023/08/21 05:36:29;;;;;;;11.45;8.77;;;25.00;99.90;;;;;;4996065;28;20030;-49
2023/08/21 05:38:56;;;;;;;12.15;8.50;;;25.00;99.90;;;;;;4995699;28;20021;-47
2023/08/21 05:41:22;;;;;;;13.90;8.80;;;25.10;99.90;;;;;;4995720;28;20029;-50
2023/08/21 05:43:48;;;;;;;11.30;8.48;;;25.20;99.90;;;;;;4995898;28;20088;-47
2023/08/21 05:46:14;;;;;;;9.82;8.00;;;25.20;99.90;;;;;;4996171;28;20405;-47
2023/08/21 05:48:40;;;;;;;11.98;8.60;;;25.20;99.90;;;;;;4995586;28;20025;-44
2023/08/21 05:51:05;;;;;;;11.93;9.25;;;25.00;99.90;;;;;;4995575;28;20018;-48
2023/08/21 05:53:31;;;;;;;12.05;8.82;;;24.90;99.90;;;;;;4996050;28;20030;-47
2023/08/21 05:55:57;;;;;;;15.43;8.63;;;24.70;99.90;;;;;;4979625;28;20026;-47
2023/08/21 05:58:23;;;;;;;13.38;8.73;;;24.60;99.90;;;;;;4995589;28;20034;-46
2023/08/21 06:00:48;;;;;;;11.25;8.77;;;24.50;99.90;;;;;;5013043;28;20080;-48
2023/08/21 06:03:14;;;;;;;11.30;7.30;;;24.50;99.90;;;;;;5013311;28;20034;-48
2023/08/21 06:05:39;;;;;;;12.95;8.63;;;24.50;99.90;;;;;;4995610;28;20062;-47
2023/08/21 06:08:05;;;;;;;10.43;8.80;;;24.60;99.90;;;;;;4995362;28;20062;-49
2023/08/21 06:10:34;;;;;;;9.27;8.27;;;24.60;99.90;;;;;;5012893;28;20100;-48
2023/08/21 06:12:59;;;;;;;15.68;8.40;;;24.80;99.90;;;;;;4995308;28;20033;-48
2023/08/21 06:15:25;;;;;;;9.32;7.30;;;24.90;99.90;;;;;;4994985;28;20029;-53
2023/08/21 06:17:50;;;;;;;13.18;8.30;;;25.00;99.90;;;;;;4995208;28;20033;-51
2023/08/21 06:20:16;;;;;;;11.07;7.95;;;25.30;99.90;;;;;;4995079;28;20022;-48
2023/08/21 06:22:41;;;;;;;8.88;7.65;;;25.40;99.90;;;;;;4995110;28;20026;-48
2023/08/21 06:25:08;;;;;;;13.13;7.90;;;25.40;99.90;;;;;;4995218;28;20029;-50
2023/08/21 06:27:34;;;;;;;9.77;7.70;;;25.60;99.90;;;;;;4979093;28;20023;-47
2023/08/21 06:29:59;;;;;;;15.38;7.57;;;26.00;99.90;;;;;;4978695;28;20072;-47
2023/08/21 06:32:25;;;;;;;9.10;8.20;;;26.40;99.90;;;;;;4994710;28;20030;-47
2023/08/21 06:34:50;;;;;;;11.80;7.50;;;26.50;99.90;;;;;;4995239;28;20037;-46
2023/08/21 06:37:16;;;;;;;8.68;7.88;;;26.40;99.90;;;;;;5012817;28;20557;-49
2023/08/21 06:39:42;;;;;;;8.05;7.22;;;26.60;99.90;;;;;;5012472;28;20409;-46
2023/08/21 06:42:07;;;;;;;8.32;6.57;;;26.80;99.90;;;;;;4978868;28;20018;-47
2023/08/21 06:44:33;;;;;;;9.00;6.97;;;27.10;99.90;;;;;;4994880;28;20528;-48
2023/08/21 06:46:58;;;;;;;7.90;6.65;;;27.10;99.90;;;;;;5012589;28;20493;-47
2023/08/21 06:49:24;;;;;;;9.32;6.43;;;27.70;99.90;;;;;;4994661;28;20018;-44
2023/08/21 06:51:49;;;;;;;11.00;6.47;;;28.20;99.90;;;;;;4994806;28;20026;-47
2023/08/21 06:54:15;;;;;;;7.00;6.30;;;28.80;99.90;;;;;;4994658;28;20026;-47
2023/08/21 06:56:41;;;;;;;8.55;5.72;;;29.60;99.90;;;;;;4978431;28;20053;-48
2023/08/21 06:59:07;;;;;;;7.05;5.20;;;30.40;99.90;;;;;;4994284;28;20279;-50
2023/08/21 07:01:32;;;;;;;7.25;5.25;;;31.10;99.90;;;;;;4994224;28;20033;-48
2023/08/21 07:03:58;;;;;;;7.55;4.60;;;31.50;99.70;;;;;;4994265;28;20018;-52
2023/08/21 07:06:24;;;;;;;6.95;5.03;;;31.80;99.30;;;;;;5012036;28;20374;-50
2023/08/21 07:08:49;;;;;;;8.95;4.50;;;32.20;98.90;;;;;;4994223;28;20022;-50
2023/08/21 07:11:17;;;;;;;9.52;6.60;;;32.80;98.40;;;;;;4994158;28;20129;-51
2023/08/21 07:13:42;;;;;;;11.00;5.85;;;32.80;97.70;;;;;;4994481;28;20018;-51
2023/08/21 07:16:08;;;;;;;7.68;4.70;;;31.80;98.70;;;;;;4994231;28;20018;-53
2023/08/21 07:18:35;;;;;;;8.88;5.50;;;32.30;98.20;;;;;;4994220;28;20088;-50
2023/08/21 07:21:01;;;;;;;8.65;5.10;;;32.70;97.90;;;;;;4993853;28;20113;-51
2023/08/21 07:23:27;;;;;;;7.47;4.63;;;33.50;97.10;;;;;;4994111;28;20117;-48
2023/08/21 07:25:53;;;;;;;8.70;4.55;;;34.00;96.20;;;;;;4994156;28;20541;-49
2023/08/21 07:28:18;;;;;;;7.72;4.05;;;34.50;95.70;;;;;;4993346;28;20030;-49
2023/08/21 07:30:44;;;;;;;5.18;4.47;;;35.20;94.90;;;;;;4993466;28;20041;-48
2023/08/21 07:33:09;;;;;;;6.57;4.40;;;35.20;93.90;;;;;;4993976;28;20080;-48
2023/08/21 07:35:35;;;;;;;8.90;4.40;;;35.40;93.90;;;;;;4993959;28;20440;-49
2023/08/21 07:38:02;;;;;;;5.90;4.35;;;35.60;93.40;;;;;;5011931;28;20042;-49
2023/08/21 07:40:27;;;;;;;4.57;4.18;;;35.50;93.00;;;;;;4993749;28;20022;-49
2023/08/21 07:42:55;;;;;;;9.80;4.07;;;;;;;;;;4993893;28;20451;-53
2023/08/21 07:45:21;;;;;;;6.30;4.40;;;35.60;99.40;;;;;;4993917;28;20109;-53
2023/08/21 07:47:47;;;;;;;5.82;5.00;;;35.60;96.30;;;;;;4993927;28;20117;-54
2023/08/21 07:50:14;;;;;;;5.38;4.88;;;35.30;93.70;;;;;;4993805;28;20029;-49
2023/08/21 07:52:39;;;;;;;6.60;4.63;;;35.20;94.40;;;;;;4994008;28;20026;-53
2023/08/21 07:55:05;;;;;;;5.50;4.72;;;35.10;94.90;;;;;;4977734;28;20022;-54
2023/08/21 07:57:31;;;;;;;19.00;4.53;;;35.60;94.20;;;;;;4993645;28;20622;-54
2023/08/21 07:59:56;;;;;;;7.60;4.97;;;35.80;92.80;;;;;;4993583;28;20501;-53
2023/08/21 08:02:23;;;;;;;8.15;5.28;;;35.70;99.90;;;;;;5011355;28;20375;-51
2023/08/21 08:04:51;;;;;;;5.57;4.68;;;;;;;;;;4993741;28;20028;-51
2023/08/21 08:07:17;;;;;;;5.93;4.28;;;;;;;;;;4993977;28;20065;-54
2023/08/21 08:09:43;;;;;;;7.97;4.60;;;;;;;;;;4993533;28;20628;-51
2023/08/21 08:12:09;;;;;;;6.50;4.85;;;36.10;99.90;;;;;;4993573;28;20076;-51
2023/08/21 08:14:35;;;;;;;8.35;4.65;;;36.40;92.30;;;;;;4993758;28;20022;-51
2023/08/21 08:17:00;;;;;;;10.18;4.35;;;36.60;92.10;;;;;;4993788;28;20038;-55
2023/08/21 08:19:28;;;;;;;5.72;4.85;;;36.80;91.40;;;;;;4993361;28;20034;-53
2023/08/21 08:21:53;;;;;;;8.45;4.07;;;37.10;91.00;;;;;;4977534;28;20044;-53
2023/08/21 08:24:19;;;;;;;7.38;4.70;;;36.80;91.20;;;;;;4993682;28;20018;-51
2023/08/21 08:26:45;;;;;;;4.75;3.95;;;37.10;91.20;;;;;;4993543;28;20117;-53
2023/08/21 08:29:11;;;;;;;6.68;4.65;;;37.40;90.90;;;;;;4993465;28;20030;-51
2023/08/21 08:31:38;;;;;;;6.85;4.25;;;38.00;97.40;;;;;;4993296;28;20029;-58
2023/08/21 08:34:04;;;;;;;8.68;4.32;;;38.20;89.50;;;;;;4993746;28;20030;-53
2023/08/21 08:36:29;;;;;;;8.32;4.72;;;38.10;89.30;;;;;;4993745;28;20152;-53
2023/08/21 08:38:55;;;;;;;6.35;5.20;;;37.80;88.60;;;;;;4993315;28;20485;-55
2023/08/21 08:41:41;;;;;;;5.95;4.28;;;;;;;;;;4996848;28;20075;-52
2023/08/21 08:44:06;;;;;;;5.88;4.47;;;38.10;99.90;;;;;;4996769;28;20091;-53
2023/08/21 08:46:32;;;;;;;5.30;4.07;;;38.20;90.90;;;;;;4961405;28;20486;-52
2023/08/21 08:48:59;;;;;;;5.35;4.18;;;38.30;90.60;;;;;;4977325;28;20137;-54
2023/08/21 08:51:28;;;;;;;9.85;4.05;;;38.60;91.10;;;;;;4976893;28;20125;-57
2023/08/21 08:53:54;;;;;;;11.73;4.07;;;38.60;98.90;;;;;;4977247;28;20036;-56
2023/08/21 08:56:19;;;;;;;5.85;3.72;;;38.70;99.40;;;;;;4976918;28;20022;-53
2023/08/21 08:58:46;;;;;;;7.72;4.70;;;39.00;99.10;;;;;;4977160;28;20125;-56
2023/08/21 09:01:12;;;;;;;18.55;5.55;;;39.00;98.90;;;;;;4977232;28;20234;-50
2023/08/21 09:03:37;;;;;;;5.85;4.65;;;38.70;99.30;;;;;;4994734;28;20049;-52
2023/08/21 09:06:03;;;;;;;8.27;5.45;;;38.50;99.30;;;;;;4977253;28;20019;-51
2023/08/21 09:08:29;;;;;;;10.15;4.90;;;37.70;99.80;;;;;;4976925;28;20069;-52
2023/08/21 09:10:55;;;;;;;5.13;4.57;;;37.40;99.90;;;;;;4976842;28;20041;-51
2023/08/21 09:13:21;;;;;;;14.68;12.25;;;37.10;99.90;;;;;;4976758;28;20022;-50
2023/08/21 09:15:55;;;;;;;5.70;5.20;;;36.90;99.90;;;;;;4977101;28;20473;-53
2023/08/21 09:18:20;;;;;;;8.60;5.43;;;36.60;99.90;;;;;;5002523;23;20042;-55
2023/08/21 09:20:46;;;;;;;5.60;4.30;;;36.50;99.90;;;;;;5013386;28;20044;-52
2023/08/21 09:23:16;;;;;;;9.13;5.30;;;36.30;99.90;;;;;;5014283;28;20121;-53
2023/08/21 09:25:46;;;;;;;12.52;6.35;;;35.70;99.90;;;;;;5012868;28;20048;-48
2023/08/21 09:28:12;;;;;;;9.70;5.25;;;35.30;99.90;;;;;;5014046;28;20018;-52
2023/08/21 09:30:49;;;;;;;6.10;5.07;;;34.70;99.90;;;;;;5013560;28;20018;-48
2023/08/21 09:33:18;;;;;;;7.60;5.25;;;34.20;99.90;;;;;;5014127;28;20026;-49
2023/08/21 09:35:44;;;;;;;8.45;5.55;;;34.30;99.90;;;;;;5013824;28;20072;-57
2023/08/21 09:38:10;;;;;;;5.50;5.00;;;34.10;99.90;;;;;;5013831;28;20033;-54
2023/08/21 09:40:39;;;;;;;6.35;5.68;;;33.70;99.90;;;;;;5013646;28;20021;-56
2023/08/21 09:43:05;;;;;;;9.57;5.15;;;33.90;99.90;;;;;;5013799;28;20022;-52
2023/08/21 09:45:33;;;;;;;11.73;5.65;;;34.00;99.90;;;;;;5013335;28;20486;-52
2023/08/21 09:47:59;;;;;;;9.68;5.82;;;34.40;99.90;;;;;;5013669;28;20080;-52
2023/08/21 09:50:28;;;;;;;10.57;5.32;;;34.90;99.90;;;;;;5012951;28;20014;-53
2023/08/21 09:52:54;;;;;;;5.72;5.22;;;35.20;94.00;;;;;;5013584;28;20030;-48
2023/08/21 09:55:21;;;;;;;8.63;5.60;;;35.50;93.80;;;;;;5028802;28;20374;-47
2023/08/21 09:57:48;;;;;;;6.13;5.00;;;35.60;93.10;;;;;;5028827;28;20022;-54
2023/08/21 10:00:20;;;;;;;9.32;5.28;;;35.30;97.20;;;;;;5013102;28;20017;-54
2023/08/21 10:02:53;;;;;;;7.30;5.25;;;35.00;97.00;;;;;;5013566;28;20446;-55
2023/08/21 10:05:19;;;;;;;38.50;34.65;;;34.80;96.90;;;;;;5013111;28;20492;-52
2023/08/21 10:07:49;;;;;;;43.55;34.22;;;34.70;97.70;;;;;;5013541;28;20024;-50
2023/08/21 10:10:15;;;;;;;9.18;6.22;;;34.40;97.60;;;;;;5012820;28;20022;-56
2023/08/21 10:12:41;;;;;;;5.60;5.10;;;34.30;98.10;;;;;;5013271;28;20487;-54
2023/08/21 10:15:10;;;;;;;4.82;4.43;;;33.90;98.20;;;;;;5013157;28;20151;-50
2023/08/21 10:17:36;;;;;;;7.85;4.40;;;33.60;97.90;;;;;;5012919;28;20022;-52
2023/08/21 10:20:06;;;;;;;12.38;4.93;;;33.40;98.00;;;;;;5012602;28;20489;-48
2023/08/21 10:22:45;;;;;;;5.13;4.68;;;33.30;98.10;;;;;;5012891;28;20037;-50
2023/08/21 10:25:25;;;;;;;9.77;5.03;;;33.40;97.80;;;;;;5002231;28;20014;-51
2023/08/21 10:27:56;;;;;;;5.55;5.05;;;33.40;99.10;;;;;;5001563;28;20365;-49
2023/08/21 10:30:24;;;;;;;6.32;5.70;;;33.00;98.60;;;;;;5010512;28;20018;-49
2023/08/21 10:32:51;;;;;;;15.80;5.47;;;33.20;99.70;;;;;;5012821;28;20376;-51
2023/08/21 10:35:28;;;;;;;5.50;4.95;;;33.10;99.90;;;;;;5011263;28;20338;-56
2023/08/21 10:38:19;;;;;;;5.80;4.85;;;33.20;99.70;;;;;;5012666;28;20080;-55
2023/08/21 10:41:06;;;;;;;9.45;5.22;;;33.10;99.90;;;;;;5010499;28;20062;-55
2023/08/21 10:43:43;;;;;;;8.65;4.78;;;32.90;99.80;;;;;;5012451;28;20730;-51
2023/08/21 10:46:10;;;;;;;9.27;5.30;;;33.00;99.90;;;;;;5012628;28;20067;-46
2023/08/21 10:48:36;;;;;;;5.50;4.47;;;32.80;99.90;;;;;;5012467;28;20053;-51
2023/08/21 10:51:03;;;;;;;5.93;4.30;;;32.50;99.90;;;;;;5012114;28;20033;-52
2023/08/21 10:53:30;;;;;;;4.75;4.10;;;32.40;99.50;;;;;;5012411;28;20385;-47
2023/08/21 10:55:56;;;;;;;5.22;4.75;;;32.40;99.90;;;;;;5012237;28;20036;-53
2023/08/21 10:58:22;;;;;;;8.73;3.85;;;32.20;99.90;;;;;;5012201;28;20065;-53
2023/08/21 11:00:57;;;;;;;6.28;3.95;;;32.10;99.90;;;;;;5026742;28;20026;-51
2023/08/21 11:03:22;;;;;;;3.25;2.80;;;32.00;99.90;;;;;;5026555;28;20040;-49
2023/08/21 11:06:05;;;;;;;3.08;2.80;;;31.90;98.50;;;;;;5027324;28;20105;-51
2023/08/21 11:08:35;;;;;;;24.05;19.98;;;31.70;97.80;;;;;;5027076;28;20018;-48
2023/08/21 11:11:02;;;;;;;4.93;4.53;;;31.60;98.20;;;;;;5010710;28;20022;-55
2023/08/21 11:13:28;;;;;;;3.67;2.67;;;31.50;96.90;;;;;;5027013;28;20025;-51
2023/08/21 11:16:05;;;;;;;3.38;2.63;;;31.50;97.30;;;;;;5027218;28;20051;-53
2023/08/21 11:18:36;;;;;;;3.20;2.40;;;31.50;97.90;;;;;;5026852;28;20068;-53
2023/08/21 11:21:09;;;;;;;3.10;2.83;;;31.50;97.50;;;;;;5026890;28;20493;-54
2023/08/21 11:23:40;;;;;;;2.45;2.25;;;31.30;98.40;;;;;;5026808;28;20033;-52
2023/08/21 11:26:07;;;;;;;2.10;1.95;;;31.10;94.90;;;;;;5026896;28;20030;-52
2023/08/21 11:28:33;;;;;;;5.85;1.92;;;31.10;94.10;;;;;;5026380;28;20022;-50
2023/08/21 11:30:59;;;;;;;4.90;2.17;;;31.10;94.20;;;;;;5026425;28;20364;-53
2023/08/21 11:33:26;;;;;;;1.90;1.80;;;31.00;94.50;;;;;;5026695;28;20026;-50
2023/08/21 11:35:53;;;;;;;4.05;2.60;;;31.10;94.70;;;;;;5026425;28;20030;-53
2023/08/21 11:38:24;;;;;;;4.72;2.60;;;31.00;94.70;;;;;;5026705;28;20109;-54
2023/08/21 11:40:59;;;;;;;3.20;2.20;;;31.00;94.50;;;;;;5026597;28;20037;-49
2023/08/21 11:43:38;;;;;;;2.40;1.90;;;30.90;95.40;;;;;;5026919;28;20033;-49
2023/08/21 11:46:05;;;;;;;3.45;1.70;;;30.80;93.30;;;;;;5026877;28;20029;-53
2023/08/21 11:48:32;;;;;;;3.42;1.80;;;30.80;92.70;;;;;;5026606;28;20022;-50
2023/08/21 11:50:58;;;;;;;2.38;1.65;;;30.80;93.80;;;;;;5026532;28;20026;-49
2023/08/21 11:53:35;;;;;;;2.53;1.70;;;30.70;93.30;;;;;;5026576;28;20029;-52
2023/08/21 11:56:00;;;;;;;3.47;1.70;;;30.80;93.40;;;;;;5026543;28;20033;-53
2023/08/21 11:58:29;;;;;;;3.95;1.50;;;30.70;93.00;;;;;;5026554;28;20482;-54
2023/08/21 12:01:03;;;;;;;2.72;1.67;;;30.80;92.50;;;;;;5026165;28;20060;-50
2023/08/21 12:03:29;;;;;;;2.90;1.50;;;30.80;93.00;;;;;;5026310;28;20444;-51
2023/08/21 12:05:55;;;;;;;3.67;2.25;;;30.90;93.10;;;;;;5026337;28;20120;-52
2023/08/21 12:08:21;;;;;;;1.90;1.65;;;30.90;92.90;;;;;;5026356;28;20390;-52
2023/08/21 12:10:52;;;;;;;5.10;1.65;;;30.90;95.40;;;;;;5025983;28;20033;-55
2023/08/21 12:13:17;;;;;;;1.98;1.33;;;31.00;94.10;;;;;;5027089;28;20026;-52
2023/08/21 12:15:43;;;;;;;1.85;1.75;;;31.00;93.00;;;;;;5030477;28;20083;-53
2023/08/21 12:18:09;;;;;;;2.38;1.90;;;30.90;92.50;;;;;;5030216;28;20507;-55
2023/08/21 12:20:34;;;;;;;2.13;1.00;;;31.00;92.30;;;;;;5030089;28;20528;-53
2023/08/21 12:23:00;;;;;;;1.30;1.20;;;31.00;90.90;;;;;;5030280;28;20052;-53
2023/08/21 12:25:25;;;;;;;2.28;0.80;;;31.00;91.40;;;;;;5030035;28;20021;-52
2023/08/21 12:27:51;;;;;;;3.35;1.13;;;31.00;92.40;;;;;;5030190;28;20165;-54
2023/08/21 12:30:16;;;;;;;2.75;1.55;;;31.00;91.90;;;;;;5029557;28;20084;-51
2023/08/21 12:32:42;;;;;;;1.63;1.52;;;31.00;91.40;;;;;;5014908;28;20034;-53
2023/08/21 12:35:11;;;;;;;3.72;1.40;;;31.10;92.80;;;;;;5030055;28;20543;-55
2023/08/21 12:37:37;;;;;;;2.58;1.92;;;31.10;93.50;;;;;;5014826;28;20034;-52
2023/08/21 12:40:03;;;;;;;2.38;1.88;;;31.10;93.50;;;;;;4997160;28;20511;-51
2023/08/21 12:42:28;;;;;;;2.08;1.60;;;31.20;94.60;;;;;;5029781;28;20025;-49
2023/08/21 12:44:54;;;;;;;2.95;1.20;;;31.10;94.00;;;;;;5029598;28;20053;-50